Healing Springs, Alabama
Current Conditions -  °F | °C
As of 3:58 PM on Sunday 25 Jan 2015 (Local Time) from KMEI Reporting Station
Broken Clouds Broken Clouds  
Wind Chill: 18°   Ceiling: 8000
Heat Index: 18°   Visibility: 10mi
Dew Point:   Wind: 14mph
Humidity: 37%   Direction: 220°SW
Pressure: 29.76"   Gusts: 20mph
Location:  31.6272°N, 88.354°W
Report Text: KMEI 252158Z 22012G17KT 10SM BKN080 18/03 A2976 RMK AO2 SLP078 T01780028
Loading
Personal Weather Stations






























Interactive Weather Map New forecast layout! Learn more

10-Day Weather Forecast

Advertisements
Track Severe Weather on mobile